createdAt,value
2023-02-11T00:00:37.119Z,26
2023-02-11T00:05:44.120Z,28
2023-02-11T00:11:37.126Z,29
2023-02-11T00:16:37.195Z,29
2023-02-11T00:21:37.129Z,27
2023-02-11T00:26:43.909Z,29
2023-02-11T00:32:37.052Z,27
2023-02-11T00:37:37.063Z,27
2023-02-11T00:42:37.104Z,24
2023-02-11T00:47:37.097Z,25
2023-02-11T00:52:37.091Z,24
2023-02-11T00:57:43.911Z,30
2023-02-11T01:02:43.897Z,26
2023-02-11T01:07:44.366Z,29
2023-02-11T01:13:37.166Z,24
2023-02-11T01:18:44.907Z,25
2023-02-11T01:24:37.100Z,25
2023-02-11T01:29:37.135Z,25
2023-02-11T01:34:44.284Z,26
2023-02-11T01:40:37.091Z,25
2023-02-11T01:45:44.158Z,27
2023-02-11T01:50:44.473Z,25
2023-02-11T01:56:37.034Z,25
2023-02-11T02:01:37.164Z,26
2023-02-11T02:06:37.118Z,25
2023-02-11T02:11:44.473Z,27
2023-02-11T02:17:37.106Z,25
2023-02-11T02:22:37.101Z,24
2023-02-11T02:27:43.891Z,25
2023-02-11T02:32:44.555Z,26
2023-02-11T02:38:37.092Z,24
2023-02-11T02:43:44.147Z,27
2023-02-11T02:48:44.367Z,23
2023-02-11T02:53:44.653Z,27
2023-02-11T02:59:37.088Z,23
2023-02-11T03:04:44.549Z,24
2023-02-11T03:10:37.098Z,26
2023-02-11T03:15:37.122Z,30
2023-02-11T03:20:43.842Z,27
2023-02-11T03:26:37.026Z,26
2023-02-11T03:31:37.275Z,34
2023-02-11T03:36:37.121Z,29
2023-02-11T03:41:37.110Z,27
2023-02-11T03:46:43.881Z,29
2023-02-11T03:51:44.590Z,29
2023-02-11T03:57:37.113Z,28
2023-02-11T04:02:37.126Z,29
2023-02-11T04:07:44.088Z,29
2023-02-11T04:13:37.112Z,26
2023-02-11T04:18:44.579Z,24
2023-02-11T04:24:37.114Z,27
2023-02-11T04:29:44.132Z,28
2023-02-11T04:34:44.441Z,25
2023-02-11T04:40:37.133Z,30
2023-02-11T04:45:44.520Z,30
2023-02-11T04:51:37.075Z,30
2023-02-11T04:56:44.222Z,28
2023-02-11T05:01:44.651Z,33
2023-02-11T05:07:37.112Z,31
2023-02-11T05:12:43.866Z,33
2023-02-11T05:17:44.560Z,56
2023-02-11T05:22:49.476Z,60
2023-02-11T05:28:37.194Z,42
2023-02-11T05:33:37.322Z,32
2023-02-11T05:38:44.405Z,29
2023-02-11T05:44:37.100Z,30
2023-02-11T05:49:37.096Z,28
2023-02-11T05:54:44.443Z,28
2023-02-11T06:00:37.118Z,27
2023-02-11T06:05:37.104Z,26
2023-02-11T06:10:43.870Z,22
2023-02-11T06:15:44.450Z,29
2023-02-11T06:21:43.858Z,24
2023-02-11T06:26:44.123Z,26
2023-02-11T06:32:44.547Z,22
2023-02-11T06:37:44.507Z,23
2023-02-11T06:43:37.100Z,24
2023-02-11T06:48:45.009Z,22
2023-02-11T06:53:44.335Z,23
2023-02-11T06:59:37.117Z,25
2023-02-11T07:04:43.847Z,23
2023-02-11T07:10:37.104Z,23
2023-02-11T07:15:44.000Z,22
2023-02-11T07:21:37.073Z,21
2023-02-11T07:26:37.065Z,21
2023-02-11T07:31:44.373Z,21
2023-02-11T07:37:37.129Z,24
2023-02-11T07:42:44.184Z,22
2023-02-11T07:48:37.100Z,22
2023-02-11T07:53:43.877Z,20
2023-02-11T07:58:44.251Z,21
2023-02-11T08:04:37.094Z,23
2023-02-11T08:09:37.366Z,21
2023-02-11T08:14:43.795Z,21
2023-02-11T08:19:43.852Z,24
2023-02-11T08:24:44.496Z,24
2023-02-11T08:30:37.045Z,26
2023-02-11T08:35:37.086Z,23
2023-02-11T08:40:37.124Z,23
2023-02-11T08:45:43.932Z,24
2023-02-11T08:50:44.435Z,23
2023-02-11T08:56:37.129Z,23
2023-02-11T09:01:44.875Z,25
2023-02-11T09:07:37.098Z,24
2023-02-11T09:12:43.918Z,26
2023-02-11T09:18:37.011Z,24
2023-02-11T09:23:37.064Z,23
2023-02-11T09:28:37.208Z,22
2023-02-11T09:33:44.353Z,22
2023-02-11T09:39:37.105Z,22
2023-02-11T09:44:43.894Z,24
2023-02-11T09:50:37.082Z,19
2023-02-11T09:55:37.085Z,20
2023-02-11T10:00:37.136Z,23
2023-02-11T10:05:43.886Z,19
2023-02-11T10:11:37.095Z,20
2023-02-11T10:16:43.982Z,22
2023-02-11T10:21:44.494Z,23
2023-02-11T10:27:37.041Z,20
2023-02-11T10:32:37.105Z,21
2023-02-11T10:37:44.662Z,23
2023-02-11T10:42:43.890Z,23
2023-02-11T10:48:37.122Z,23
2023-02-11T10:53:44.072Z,28
2023-02-11T10:58:44.556Z,26
2023-02-11T11:03:44.744Z,23
2023-02-11T11:09:37.090Z,22
2023-02-11T11:14:37.108Z,21
2023-02-11T11:19:44.576Z,21
2023-02-11T11:25:37.101Z,20
2023-02-11T11:31:37.225Z,21
2023-02-11T11:36:37.089Z,21
2023-02-11T11:41:37.100Z,18
2023-02-11T11:46:43.940Z,22
2023-02-11T11:52:37.100Z,20
2023-02-11T11:57:44.757Z,19
2023-02-11T12:03:37.276Z,18
2023-02-11T12:08:37.146Z,18
2023-02-11T12:13:37.087Z,18
2023-02-11T12:18:46.950Z,20
2023-02-11T12:23:44.076Z,17
2023-02-11T12:28:44.079Z,19
2023-02-11T12:33:44.577Z,22
2023-02-11T12:39:37.121Z,19
2023-02-11T12:44:37.093Z,18
2023-02-11T12:49:44.121Z,20
2023-02-11T12:55:37.249Z,21
2023-02-11T13:00:37.164Z,23
2023-02-11T13:05:43.861Z,21
2023-02-11T13:11:37.105Z,20
2023-02-11T13:16:37.400Z,22
2023-02-11T13:21:43.881Z,21
2023-02-11T13:26:44.542Z,27
2023-02-11T13:32:37.119Z,27
2023-02-11T13:37:44.420Z,29
2023-02-11T13:43:37.126Z,27
2023-02-11T13:48:43.876Z,29
2023-02-11T13:53:43.899Z,36
2023-02-11T13:59:37.361Z,30
2023-02-11T14:04:44.391Z,28
2023-02-11T14:10:37.093Z,29
2023-02-11T14:15:44.314Z,30
2023-02-11T14:21:37.115Z,29
2023-02-11T14:26:37.152Z,37
2023-02-11T14:31:44.050Z,34
2023-02-11T14:36:43.878Z,36
2023-02-11T14:41:43.866Z,31
2023-02-11T14:46:44.244Z,34
2023-02-11T14:51:44.830Z,32
2023-02-11T14:57:37.039Z,36
2023-02-11T15:02:37.163Z,35
2023-02-11T15:07:37.099Z,35
2023-02-11T15:12:37.088Z,34
2023-02-11T15:17:44.807Z,36
2023-02-11T15:22:50.148Z,36
2023-02-11T15:28:37.188Z,41
2023-02-11T15:33:37.110Z,36
2023-02-11T15:38:43.978Z,39
2023-02-11T15:44:37.032Z,41
2023-02-11T15:49:37.109Z,41
2023-02-11T15:54:44.600Z,44
2023-02-11T16:00:37.030Z,43
2023-02-11T16:05:37.107Z,45
2023-02-11T16:10:43.888Z,42
2023-02-11T16:16:37.195Z,45
2023-02-11T16:21:42.692Z,45
2023-02-11T16:26:44.404Z,44
2023-02-11T16:32:37.100Z,45
2023-02-11T16:37:37.098Z,43
2023-02-11T16:42:44.167Z,43
2023-02-11T16:48:37.129Z,46
2023-02-11T16:53:43.875Z,45
2023-02-11T16:58:44.115Z,42
2023-02-11T17:03:44.413Z,42
2023-02-11T17:09:37.075Z,46
2023-02-11T17:14:43.814Z,46
2023-02-11T17:19:43.825Z,47
2023-02-11T17:24:44.188Z,51
2023-02-11T17:30:37.098Z,50
2023-02-11T17:35:37.093Z,48
2023-02-11T17:40:37.132Z,50
2023-02-11T17:45:44.562Z,48
2023-02-11T17:51:37.100Z,54
2023-02-11T17:56:44.703Z,46
2023-02-11T18:02:37.131Z,50
2023-02-11T18:07:43.865Z,48
2023-02-11T18:13:37.102Z,59
2023-02-11T18:18:45.366Z,52
2023-02-11T18:24:37.121Z,52
2023-02-11T18:29:43.877Z,47
2023-02-11T18:34:44.535Z,53
2023-02-11T18:40:37.097Z,48
2023-02-11T18:45:37.139Z,103
2023-02-11T18:50:44.400Z,67
2023-02-11T18:56:37.095Z,57
2023-02-11T19:01:44.202Z,56
2023-02-11T19:06:44.655Z,55
2023-02-11T19:12:37.083Z,58
2023-02-11T19:17:37.107Z,50
2023-02-11T19:22:44.328Z,57
2023-02-11T19:27:44.506Z,59
2023-02-11T19:33:37.103Z,58
2023-02-11T19:38:44.599Z,54
2023-02-11T19:44:37.090Z,55
2023-02-11T19:49:44.570Z,51
2023-02-11T19:55:37.131Z,54
2023-02-11T20:00:37.093Z,57
2023-02-11T20:05:44.491Z,54
2023-02-11T20:11:37.071Z,52
2023-02-11T20:16:48.079Z,52
2023-02-11T20:21:46.615Z,52
2023-02-11T20:27:37.141Z,72
2023-02-11T20:32:44.744Z,70
2023-02-11T20:38:37.081Z,84
2023-02-11T20:43:44.352Z,81
2023-02-11T20:48:44.490Z,78
2023-02-11T20:54:37.076Z,76
2023-02-11T20:59:43.827Z,77
2023-02-11T21:04:43.800Z,81
2023-02-11T21:09:43.895Z,72
2023-02-11T21:15:37.178Z,71
2023-02-11T21:20:37.089Z,74
2023-02-11T21:25:37.096Z,67
2023-02-11T21:30:44.709Z,67
2023-02-11T21:36:37.094Z,65
2023-02-11T21:41:37.110Z,65
2023-02-11T21:46:44.741Z,60
2023-02-11T21:52:37.094Z,56
2023-02-11T21:57:43.884Z,54
2023-02-11T22:02:44.076Z,52
2023-02-11T22:08:37.107Z,51
2023-02-11T22:13:42.696Z,45
2023-02-11T22:18:43.910Z,46
2023-02-11T22:23:43.902Z,60
2023-02-11T22:28:44.229Z,47
2023-02-11T22:34:37.142Z,51
2023-02-11T22:39:44.332Z,45
2023-02-11T22:45:37.188Z,48
2023-02-11T22:50:37.130Z,48
2023-02-11T22:55:43.902Z,42
2023-02-11T23:01:37.175Z,47
2023-02-11T23:06:37.096Z,41
2023-02-11T23:11:44.305Z,49
2023-02-11T23:16:44.825Z,48
2023-02-11T23:22:37.066Z,48
2023-02-11T23:27:43.854Z,52
2023-02-11T23:33:37.086Z,48
2023-02-11T23:38:43.950Z,49
2023-02-11T23:44:37.116Z,49
2023-02-11T23:49:44.322Z,46
2023-02-11T23:55:37.097Z,41
